Time,TemperatureF,DewpointF,PressureIn,WindDirection,WindDirectionDegrees,WindSpeedMPH,WindSpeedGustMPH,Humidity,HourlyPrecipIn,Conditions,Clouds,dailyrainin,SoftwareType,DateUTC
2013-07-20 00:09:00,79.2,69.0,29.76,West,265,1.0,9.0,72,0.00,,,0.00,weatherlink.com 1.10,2013-07-20 04:09:00,
2013-07-20 00:24:00,78.4,67.0,29.75,West,280,3.0,8.0,69,0.00,,,0.00,weatherlink.com 1.10,2013-07-20 04:24:00,
2013-07-20 00:39:00,77.6,66.0,29.75,WNW,289,1.0,5.0,67,0.00,,,0.00,weatherlink.com 1.10,2013-07-20 04:39:00,
2013-07-20 00:54:00,76.9,66.0,29.73,West,269,0.0,2.0,68,0.00,,,0.00,weatherlink.com 1.10,2013-07-20 04:54:00,
2013-07-20 01:09:00,75.6,65.0,29.74,West,269,0.0,0.0,70,0.00,,,0.00,weatherlink.com 1.10,2013-07-20 05:09:00,
2013-07-20 01:24:00,74.7,66.0,29.74,West,269,0.0,0.0,74,0.00,,,0.00,weatherlink.com 1.10,2013-07-20 05:24:00,
2013-07-20 01:39:00,73.8,66.0,29.74,West,269,0.0,1.0,76,0.00,,,0.00,weatherlink.com 1.10,2013-07-20 05:39:00,
2013-07-20 01:54:00,72.9,66.0,29.73,West,269,0.0,1.0,78,0.00,,,0.00,weatherlink.com 1.10,2013-07-20 05:54:00,
2013-07-20 02:09:00,72.2,66.0,29.72,West,269,0.0,2.0,80,0.00,,,0.00,weatherlink.com 1.10,2013-07-20 06:09:00,
2013-07-20 02:25:00,71.7,65.0,29.72,West,269,0.0,1.0,80,0.00,,,0.00,weatherlink.com 1.10,2013-07-20 06:25:00,
2013-07-20 02:40:00,71.3,65.0,29.71,West,269,0.0,0.0,81,0.00,,,0.00,weatherlink.com 1.10,2013-07-20 06:40:00,
2013-07-20 02:55:00,70.8,65.0,29.72,West,269,0.0,1.0,82,0.00,,,0.00,weatherlink.com 1.10,2013-07-20 06:55:00,
2013-07-20 03:10:00,70.3,65.0,29.72,West,269,0.0,0.0,84,0.00,,,0.00,weatherlink.com 1.10,2013-07-20 07:10:00,
2013-07-20 03:25:00,69.7,65.0,29.72,West,269,0.0,0.0,84,0.00,,,0.00,weatherlink.com 1.10,2013-07-20 07:25:00,
2013-07-20 03:40:00,69.2,65.0,29.72,West,269,0.0,0.0,85,0.00,,,0.00,weatherlink.com 1.10,2013-07-20 07:40:00,
2013-07-20 03:55:00,68.7,65.0,29.71,West,269,0.0,0.0,87,0.00,,,0.00,weatherlink.com 1.10,2013-07-20 07:55:00,
2013-07-20 04:10:00,68.3,64.0,29.71,West,269,0.0,0.0,87,0.00,,,0.00,weatherlink.com 1.10,2013-07-20 08:10:00,
2013-07-20 04:25:00,68.1,65.0,29.71,West,269,0.0,0.0,88,0.00,,,0.00,weatherlink.com 1.10,2013-07-20 08:25:00,
2013-07-20 04:40:00,67.9,64.0,29.70,West,269,0.0,0.0,88,0.00,,,0.00,weatherlink.com 1.10,2013-07-20 08:40:00,
2013-07-20 04:55:00,67.9,64.0,29.70,West,269,0.0,1.0,88,0.00,,,0.00,weatherlink.com 1.10,2013-07-20 08:55:00,
2013-07-20 05:10:00,67.7,64.0,29.70,West,269,0.0,0.0,89,0.00,,,0.00,weatherlink.com 1.10,2013-07-20 09:10:00,
2013-07-20 05:25:00,67.5,64.0,29.71,West,269,0.0,1.0,89,0.00,,,0.00,weatherlink.com 1.10,2013-07-20 09:25:00,
2013-07-20 05:40:00,67.2,64.0,29.70,West,269,0.0,0.0,89,0.00,,,0.00,weatherlink.com 1.10,2013-07-20 09:40:00,
2013-07-20 05:55:00,67.1,64.0,29.71,West,269,0.0,0.0,90,0.00,,,0.00,weatherlink.com 1.10,2013-07-20 09:55:00,
2013-07-20 06:10:00,67.1,65.0,29.71,West,269,0.0,1.0,91,0.00,,,0.00,weatherlink.com 1.10,2013-07-20 10:10:00,
2013-07-20 06:25:00,67.3,65.0,29.71,West,269,0.0,0.0,91,0.00,,,0.00,weatherlink.com 1.10,2013-07-20 10:25:00,
2013-07-20 06:40:00,67.6,65.0,29.71,West,269,0.0,0.0,91,0.00,,,0.00,weatherlink.com 1.10,2013-07-20 10:40:00,
2013-07-20 06:55:00,68.0,66.0,29.72,West,269,0.0,0.0,92,0.00,,,0.00,weatherlink.com 1.10,2013-07-20 10:55:00,
2013-07-20 07:10:00,68.6,66.0,29.71,West,269,0.0,1.0,92,0.00,,,0.00,weatherlink.com 1.10,2013-07-20 11:10:00,
2013-07-20 07:25:00,69.7,67.0,29.72,West,269,0.0,0.0,92,0.00,,,0.00,weatherlink.com 1.10,2013-07-20 11:25:00,
2013-07-20 07:40:00,71.4,69.0,29.73,West,275,2.0,5.0,91,0.00,,,0.00,weatherlink.com 1.10,2013-07-20 11:40:00,
2013-07-20 07:55:00,73.2,70.0,29.72,WNW,287,5.0,6.0,88,0.00,,,0.00,weatherlink.com 1.10,2013-07-20 11:55:00,
2013-07-20 08:10:00,74.2,70.0,29.72,West,277,2.0,4.0,87,0.00,,,0.00,weatherlink.com 1.10,2013-07-20 12:10:00,
2013-07-20 08:25:00,75.0,70.0,29.72,SSW,213,2.0,6.0,85,0.00,,,0.00,weatherlink.com 1.10,2013-07-20 12:25:00,
2013-07-20 08:40:00,75.7,71.0,29.72,West,269,2.0,3.0,86,0.00,,,0.00,weatherlink.com 1.10,2013-07-20 12:40:00,
2013-07-20 08:55:00,76.0,71.0,29.72,SW,231,1.0,4.0,84,0.00,,,0.00,weatherlink.com 1.10,2013-07-20 12:55:00,
2013-07-20 09:10:00,76.2,71.0,29.71,West,260,1.0,5.0,85,0.00,,,0.00,weatherlink.com 1.10,2013-07-20 13:10:00,
2013-07-20 09:25:00,77.2,73.0,29.70,SW,234,4.0,7.0,87,0.00,,,0.00,weatherlink.com 1.10,2013-07-20 13:25:00,
2013-07-20 09:40:00,81.3,74.0,29.70,SW,232,10.0,10.0,79,0.00,,,0.00,weatherlink.com 1.10,2013-07-20 13:40:00,
2013-07-20 09:55:00,84.8,74.0,29.70,West,278,4.0,10.0,70,0.00,,,0.00,weatherlink.com 1.10,2013-07-20 13:55:00,
2013-07-20 10:10:00,87.2,73.0,29.69,WNW,294,1.0,9.0,62,0.00,,,0.00,weatherlink.com 1.10,2013-07-20 14:10:00,
2013-07-20 10:25:00,87.2,72.0,29.69,WNW,290,2.0,12.0,60,0.00,,,0.00,weatherlink.com 1.10,2013-07-20 14:25:00,
2013-07-20 10:40:00,85.5,73.0,29.69,WNW,297,2.0,8.0,66,0.00,,,0.00,weatherlink.com 1.10,2013-07-20 14:40:00,
2013-07-20 10:55:00,87.4,72.0,29.69,WNW,288,0.0,8.0,61,0.00,,,0.00,weatherlink.com 1.10,2013-07-20 14:55:00,
2013-07-20 11:10:00,88.5,73.0,29.68,West,265,0.0,6.0,61,0.00,,,0.00,weatherlink.com 1.10,2013-07-20 15:10:00,
2013-07-20 11:25:00,88.4,73.0,29.69,WNW,287,0.0,8.0,61,0.00,,,0.00,weatherlink.com 1.10,2013-07-20 15:25:00,
2013-07-20 11:40:00,89.2,75.0,29.69,WNW,282,2.0,8.0,63,0.00,,,0.00,weatherlink.com 1.10,2013-07-20 15:40:00,
2013-07-20 11:55:00,88.9,75.0,29.69,West,267,9.0,9.0,63,0.00,,,0.00,weatherlink.com 1.10,2013-07-20 15:55:00,
2013-07-20 12:10:00,89.8,76.0,29.68,West,267,3.0,8.0,63,0.00,,,0.00,weatherlink.com 1.10,2013-07-20 16:10:00,
2013-07-20 12:26:00,89.0,74.0,29.68,WNW,283,4.0,13.0,62,0.00,,,0.00,weatherlink.com 1.10,2013-07-20 16:26:00,
2013-07-20 12:41:00,87.9,76.0,29.67,WNW,293,5.0,8.0,67,0.00,,,0.00,weatherlink.com 1.10,2013-07-20 16:41:00,
2013-07-20 12:56:00,87.8,75.0,29.67,WNW,287,5.0,8.0,65,0.00,,,0.00,weatherlink.com 1.10,2013-07-20 16:56:00,
2013-07-20 13:11:00,87.1,72.0,29.68,West,270,6.0,11.0,61,0.00,,,0.00,weatherlink.com 1.10,2013-07-20 17:11:00,
2013-07-20 13:22:00,85.7,71.2,29.68,WNW,288,5.0,5.0,62,0.00,,,0.00,Wunderground v.1.15,2013-07-20 17:22:00,
2013-07-20 13:26:00,85.3,72.0,29.68,WNW,286,6.0,13.0,64,0.00,,,0.00,weatherlink.com 1.10,2013-07-20 17:26:00,
2013-07-20 13:41:00,84.7,73.0,29.67,West,261,3.0,9.0,67,0.00,,,0.00,weatherlink.com 1.10,2013-07-20 17:41:00,
2013-07-20 13:56:00,84.7,74.0,29.67,West,281,2.0,9.0,70,0.00,,,0.00,weatherlink.com 1.10,2013-07-20 17:56:00,
2013-07-20 14:11:00,84.6,72.0,29.67,West,281,2.0,9.0,66,0.00,,,0.00,weatherlink.com 1.10,2013-07-20 18:11:00,
2013-07-20 14:26:00,84.7,73.0,29.67,West,281,3.0,9.0,67,0.00,,,0.00,weatherlink.com 1.10,2013-07-20 18:26:00,
2013-07-20 14:41:00,85.8,73.0,29.66,WNW,288,5.0,11.0,65,0.00,,,0.00,weatherlink.com 1.10,2013-07-20 18:41:00,
2013-07-20 14:56:00,85.1,71.0,29.66,WSW,252,2.0,12.0,63,0.00,,,0.00,weatherlink.com 1.10,2013-07-20 18:56:00,
2013-07-20 15:11:00,86.0,71.0,29.66,SW,234,7.0,12.0,61,0.00,,,0.00,weatherlink.com 1.10,2013-07-20 19:11:00,
2013-07-20 15:26:00,85.3,70.0,29.67,West,264,6.0,15.0,61,0.00,,,0.00,weatherlink.com 1.10,2013-07-20 19:26:00,
2013-07-20 15:41:00,84.2,70.0,29.66,SW,217,7.0,14.0,63,0.00,,,0.00,weatherlink.com 1.10,2013-07-20 19:41:00,
2013-07-20 15:56:00,84.5,71.0,29.65,WNW,282,2.0,12.0,64,0.00,,,0.00,weatherlink.com 1.10,2013-07-20 19:56:00,
2013-07-20 16:11:00,84.4,70.0,29.66,West,269,6.0,10.0,62,0.00,,,0.00,weatherlink.com 1.10,2013-07-20 20:11:00,
2013-07-20 16:26:00,83.2,70.0,29.66,WSW,257,7.0,15.0,65,0.00,,,0.00,weatherlink.com 1.10,2013-07-20 20:26:00,
2013-07-20 16:41:00,82.9,71.0,29.66,WNW,286,3.0,11.0,68,0.00,,,0.00,weatherlink.com 1.10,2013-07-20 20:41:00,
2013-07-20 16:56:00,82.7,68.0,29.66,West,269,5.0,18.0,62,0.00,,,0.00,weatherlink.com 1.10,2013-07-20 20:56:00,
2013-07-20 17:11:00,82.1,69.0,29.68,West,280,6.0,18.0,64,0.00,,,0.00,weatherlink.com 1.10,2013-07-20 21:11:00,
2013-07-20 17:26:00,81.3,69.0,29.69,West,266,4.0,10.0,66,0.00,,,0.00,weatherlink.com 1.10,2013-07-20 21:26:00,
2013-07-20 18:11:00,80.0,69.0,29.69,WNW,288,4.0,9.0,68,0.00,,,0.00,weatherlink.com 1.10,2013-07-20 22:11:00,
2013-07-20 18:41:00,79.2,68.0,29.70,WNW,302,6.0,9.0,68,0.00,,,0.00,weatherlink.com 1.10,2013-07-20 22:41:00,
2013-07-20 18:56:00,78.7,68.0,29.71,WSW,255,5.0,8.0,70,0.00,,,0.00,weatherlink.com 1.10,2013-07-20 22:56:00,
2013-07-20 19:11:00,78.0,67.0,29.72,WSW,257,6.0,10.0,70,0.00,,,0.00,weatherlink.com 1.10,2013-07-20 23:11:00,
2013-07-20 19:26:00,76.0,68.0,29.73,WSW,240,0.0,7.0,77,0.00,,,0.00,weatherlink.com 1.10,2013-07-20 23:26:00,
2013-07-20 19:41:00,73.7,68.0,29.73,WSW,252,1.0,2.0,82,0.00,,,0.00,weatherlink.com 1.10,2013-07-20 23:41:00,
2013-07-20 19:56:00,72.8,68.0,29.73,West,266,0.0,2.0,84,0.00,,,0.00,weatherlink.com 1.10,2013-07-20 23:56:00,
2013-07-20 20:11:00,72.2,68.0,29.73,West,266,0.0,2.0,85,0.00,,,0.00,weatherlink.com 1.10,2013-07-21 00:11:00,
2013-07-20 20:26:00,71.3,67.0,29.74,West,266,0.0,1.0,87,0.00,,,0.00,weatherlink.com 1.10,2013-07-21 00:26:00,
2013-07-20 20:41:00,69.7,66.0,29.73,West,266,1.0,1.0,89,0.00,,,0.00,weatherlink.com 1.10,2013-07-21 00:41:00,
2013-07-20 20:56:00,69.0,66.0,29.75,West,266,0.0,1.0,90,0.00,,,0.00,weatherlink.com 1.10,2013-07-21 00:56:00,
2013-07-20 21:11:00,68.5,66.0,29.75,West,266,0.0,1.0,90,0.00,,,0.00,weatherlink.com 1.10,2013-07-21 01:11:00,
2013-07-20 21:26:00,67.8,65.0,29.77,West,266,0.0,0.0,89,0.00,,,0.00,weatherlink.com 1.10,2013-07-21 01:26:00,
2013-07-20 21:41:00,66.8,64.0,29.77,West,266,0.0,0.0,89,0.00,,,0.00,weatherlink.com 1.10,2013-07-21 01:41:00,
2013-07-20 21:56:00,66.3,64.0,29.77,West,266,0.0,2.0,91,0.00,,,0.00,weatherlink.com 1.10,2013-07-21 01:56:00,
2013-07-20 22:11:00,65.9,63.0,29.78,West,266,0.0,0.0,91,0.00,,,0.00,weatherlink.com 1.10,2013-07-21 02:11:00,
2013-07-20 23:11:00,64.3,62.0,29.79,West,266,0.0,1.0,92,0.00,,,0.00,weatherlink.com 1.10,2013-07-21 03:11:00,
2013-07-20 23:26:00,64.1,62.0,29.80,West,266,0.0,0.0,92,0.00,,,0.00,weatherlink.com 1.10,2013-07-21 03:26:00,
2013-07-20 23:41:00,64.0,62.0,29.81,West,266,0.0,0.0,92,0.00,,,0.00,weatherlink.com 1.10,2013-07-21 03:41:00,
2013-07-20 23:56:00,63.8,62.0,29.82,West,266,0.0,0.0,92,0.00,,,0.00,weatherlink.com 1.10,2013-07-21 03:56:00,